createdAt,value
2023-02-03T00:01:31.674Z,9.07
2023-02-03T00:05:39.259Z,9.10
2023-02-03T00:09:44.118Z,9.09
2023-02-03T00:13:49.096Z,9.08
2023-02-03T00:17:53.539Z,9.11
2023-02-03T00:22:00.897Z,9.11
2023-02-03T00:26:10.343Z,9.14
2023-02-03T00:30:17.590Z,9.12
2023-02-03T00:34:21.998Z,9.16
2023-02-03T00:38:31.255Z,9.13
2023-02-03T00:42:37.378Z,9.13
2023-02-03T00:46:42.427Z,9.16
2023-02-03T00:50:49.215Z,9.17
2023-02-03T00:54:55.387Z,9.19
2023-02-03T00:58:59.916Z,9.19
2023-02-03T01:03:05.007Z,9.18
2023-02-03T01:07:10.352Z,9.17
2023-02-03T01:11:18.224Z,9.12
2023-02-03T01:15:22.682Z,9.12
2023-02-03T01:19:27.066Z,9.12
2023-02-03T01:23:32.294Z,9.09
2023-02-03T01:27:38.746Z,9.07
2023-02-03T01:31:44.513Z,9.05
2023-02-03T01:35:49.742Z,9.08
2023-02-03T01:39:55.065Z,9.11
2023-02-03T01:44:02.747Z,9.13
2023-02-03T01:48:07.571Z,9.15
2023-02-03T01:52:13.133Z,9.18
2023-02-03T01:56:18.616Z,9.16
2023-02-03T02:00:26.376Z,9.18
2023-02-03T02:04:42.328Z,9.18
2023-02-03T02:08:50.831Z,9.19
2023-02-03T02:12:58.206Z,9.21
2023-02-03T02:17:11.836Z,9.20
2023-02-03T02:21:30.597Z,9.19
2023-02-03T02:25:54.893Z,9.23
2023-02-03T02:30:28.150Z,9.20
2023-02-03T02:34:45.031Z,9.22
2023-02-03T02:39:00.385Z,9.21
2023-02-03T02:43:13.940Z,9.25
2023-02-03T02:47:22.537Z,9.24
2023-02-03T02:51:32.368Z,9.28
2023-02-03T02:55:42.790Z,9.30
2023-02-03T02:59:48.804Z,9.31
2023-02-03T03:03:54.131Z,9.33
2023-02-03T03:08:04.325Z,9.32
2023-02-03T03:12:14.498Z,9.29
2023-02-03T03:16:24.008Z,9.26
2023-02-03T03:20:29.928Z,9.18
2023-02-03T03:24:42.322Z,9.20
2023-02-03T03:28:51.818Z,9.16
2023-02-03T03:32:58.910Z,9.10
2023-02-03T03:37:10.824Z,9.08
2023-02-03T03:41:21.879Z,9.01
2023-02-03T03:45:30.766Z,9.01
2023-02-03T03:49:38.106Z,9.01
2023-02-03T03:53:46.607Z,9.02
2023-02-03T03:57:59.180Z,9.03
2023-02-03T04:02:06.460Z,8.99
2023-02-03T04:06:11.065Z,9.02
2023-02-03T04:10:22.377Z,9.00
2023-02-03T04:14:28.511Z,8.98
2023-02-03T04:18:33.802Z,8.99
2023-02-03T04:22:37.585Z,8.99
2023-02-03T04:26:42.276Z,9.05
2023-02-03T04:30:49.868Z,9.06
2023-02-03T04:34:55.434Z,9.08
2023-02-03T04:39:00.825Z,9.08
2023-02-03T04:43:09.620Z,9.17
2023-02-03T04:47:15.896Z,9.19
2023-02-03T04:51:20.605Z,9.24
2023-02-03T04:55:25.885Z,9.29
2023-02-03T04:59:29.551Z,9.30
2023-02-03T05:03:35.631Z,9.30
2023-02-03T05:07:39.092Z,9.30
2023-02-03T05:11:42.231Z,9.31
2023-02-03T05:15:47.568Z,9.34
2023-02-03T05:19:52.621Z,9.34
2023-02-03T05:23:55.650Z,9.37
2023-02-03T05:27:58.808Z,9.34
2023-02-03T05:32:01.937Z,9.31
2023-02-03T05:36:07.251Z,9.34
2023-02-03T05:40:29.016Z,9.35
2023-02-03T05:44:32.360Z,9.35
2023-02-03T05:48:35.849Z,9.35
2023-02-03T05:52:40.244Z,9.35
2023-02-03T05:56:43.727Z,9.34
2023-02-03T06:00:47.274Z,9.38
2023-02-03T06:04:50.348Z,9.37
2023-02-03T06:08:57.136Z,9.39
2023-02-03T06:13:00.171Z,9.41
2023-02-03T06:17:03.257Z,9.40
2023-02-03T06:21:06.848Z,9.41
2023-02-03T06:25:13.267Z,9.36
2023-02-03T06:29:16.364Z,9.33
2023-02-03T06:33:19.393Z,9.30
2023-02-03T06:37:24.578Z,9.32
2023-02-03T06:41:30.746Z,9.28
2023-02-03T06:45:34.626Z,9.30
2023-02-03T06:49:37.696Z,9.25
2023-02-03T06:53:40.704Z,9.25
2023-02-03T06:57:49.303Z,9.28
2023-02-03T07:01:53.122Z,9.25
2023-02-03T07:05:56.168Z,9.27
2023-02-03T07:09:59.190Z,9.27
2023-02-03T07:14:04.071Z,9.34
2023-02-03T07:18:07.115Z,9.34
2023-02-03T07:22:11.306Z,9.34
2023-02-03T07:26:14.399Z,9.38
2023-02-03T07:30:18.999Z,9.38
2023-02-03T07:34:22.090Z,9.43
2023-02-03T07:38:26.240Z,9.40
2023-02-03T07:42:29.281Z,9.47
2023-02-03T07:46:33.667Z,9.43
2023-02-03T07:50:36.959Z,9.29
2023-02-03T07:54:39.984Z,9.29
2023-02-03T07:58:43.079Z,9.31
2023-02-03T08:02:47.838Z,9.40
2023-02-03T08:06:51.043Z,9.45
2023-02-03T08:10:56.314Z,9.49
2023-02-03T08:14:59.399Z,9.51
2023-02-03T08:19:03.793Z,9.52
2023-02-03T08:23:06.871Z,9.57
2023-02-03T08:27:09.885Z,9.59
2023-02-03T08:31:13.573Z,9.60
2023-02-03T08:35:18.248Z,9.62
2023-02-03T08:39:21.537Z,9.68
2023-02-03T08:43:24.613Z,9.69
2023-02-03T08:47:28.400Z,9.71
2023-02-03T08:51:32.776Z,9.73
2023-02-03T08:55:36.027Z,9.71
2023-02-03T08:59:40.386Z,9.62
2023-02-03T09:03:44.007Z,9.53
2023-02-03T09:07:49.905Z,9.46
2023-02-03T09:11:52.988Z,9.33
2023-02-03T09:15:56.132Z,9.22
2023-02-03T09:19:59.337Z,9.36
2023-02-03T09:24:04.676Z,9.42
2023-02-03T09:28:07.704Z,9.42
2023-02-03T09:32:10.840Z,9.39
2023-02-03T09:36:14.723Z,9.45
2023-02-03T09:40:25.763Z,9.40
2023-02-03T09:44:37.053Z,9.29
2023-02-03T09:48:44.789Z,9.31
2023-02-03T09:52:49.232Z,9.27
2023-02-03T09:56:55.919Z,9.24
2023-02-03T10:01:01.744Z,9.16
2023-02-03T10:05:12.470Z,9.13
2023-02-03T10:09:30.633Z,9.02
2023-02-03T10:13:46.579Z,8.95
2023-02-03T10:17:55.631Z,8.84
2023-02-03T10:22:01.613Z,8.78
2023-02-03T10:26:07.526Z,8.74
2023-02-03T10:30:21.510Z,8.70
2023-02-03T10:34:26.883Z,8.67
2023-02-03T10:38:48.768Z,8.69
2023-02-03T10:43:10.611Z,8.73
2023-02-03T10:47:24.604Z,8.75
2023-02-03T10:51:32.053Z,8.80
2023-02-03T10:55:35.197Z,8.86
2023-02-03T10:59:43.595Z,8.95
2023-02-03T11:03:58.374Z,9.08
2023-02-03T11:08:02.061Z,9.18
2023-02-03T11:12:13.143Z,9.29
2023-02-03T11:16:18.553Z,9.34
2023-02-03T11:20:27.550Z,9.40
2023-02-03T11:24:33.896Z,9.40
2023-02-03T11:28:37.300Z,9.47
2023-02-03T11:32:43.222Z,9.51
2023-02-03T11:36:47.666Z,9.52
2023-02-03T11:41:01.103Z,9.57
2023-02-03T11:45:15.647Z,9.61
2023-02-03T11:49:52.372Z,9.66
2023-02-03T11:54:07.752Z,9.72
2023-02-03T11:58:47.000Z,9.84
2023-02-03T12:03:16.004Z,9.86
2023-02-03T12:07:37.082Z,9.96
2023-02-03T12:11:55.371Z,9.98
2023-02-03T12:16:13.889Z,10.02
2023-02-03T12:20:30.436Z,10.07
2023-02-03T12:24:40.963Z,10.08
2023-02-03T12:28:52.376Z,10.13
2023-02-03T12:32:59.426Z,10.13
2023-02-03T12:37:08.835Z,10.13
2023-02-03T12:41:16.953Z,10.17
2023-02-03T12:45:27.756Z,10.19
2023-02-03T12:49:40.499Z,10.13
2023-02-03T12:53:51.297Z,10.19
2023-02-03T12:58:00.250Z,10.23
2023-02-03T13:02:15.826Z,10.18
2023-02-03T13:06:25.632Z,10.19
2023-02-03T13:10:35.441Z,10.20
2023-02-03T13:14:43.954Z,10.25
2023-02-03T13:18:55.031Z,10.23
2023-02-03T13:22:58.752Z,10.24
2023-02-03T13:27:22.390Z,10.24
2023-02-03T13:31:39.607Z,10.27
2023-02-03T13:35:57.301Z,10.27
2023-02-03T13:40:16.268Z,10.34
2023-02-03T13:44:22.667Z,10.44
2023-02-03T13:48:28.357Z,10.41
2023-02-03T13:52:37.253Z,10.43
2023-02-03T13:56:40.801Z,10.39
2023-02-03T14:01:24.939Z,10.40
2023-02-03T14:05:48.951Z,10.43
2023-02-03T14:14:56.555Z,10.55
2023-02-03T14:19:00.442Z,10.56
2023-02-03T14:23:10.891Z,10.62
2023-02-03T14:27:19.793Z,10.65
2023-02-03T14:31:26.485Z,10.61
2023-02-03T14:35:32.734Z,10.65
2023-02-03T14:39:55.425Z,10.80
2023-02-03T14:44:08.285Z,10.85
2023-02-03T14:48:26.902Z,10.77
2023-02-03T14:52:47.224Z,10.77
2023-02-03T14:57:19.826Z,10.79
2023-02-03T15:01:29.246Z,10.72
2023-02-03T15:05:39.812Z,10.63
2023-02-03T15:09:46.524Z,10.61
2023-02-03T15:13:49.630Z,10.53
2023-02-03T15:17:54.492Z,10.53
2023-02-03T15:21:59.005Z,10.55
2023-02-03T15:26:04.934Z,10.55
2023-02-03T15:30:27.745Z,10.33
2023-02-03T15:34:35.517Z,10.22
2023-02-03T15:38:46.139Z,10.20
2023-02-03T15:43:00.415Z,10.08
2023-02-03T15:47:07.803Z,9.93
2023-02-03T15:51:16.959Z,9.83
2023-02-03T15:55:29.196Z,9.71
2023-02-03T15:59:35.631Z,9.50
2023-02-03T16:03:41.421Z,9.47
2023-02-03T16:07:44.484Z,9.42
2023-02-03T16:11:48.982Z,9.28
2023-02-03T16:16:05.839Z,9.25
2023-02-03T16:20:28.521Z,9.18
2023-02-03T16:24:40.351Z,9.19
2023-02-03T16:29:02.759Z,9.07
2023-02-03T16:33:31.031Z,9.04
2023-02-03T16:37:53.724Z,9.04
2023-02-03T16:42:15.697Z,9.11
2023-02-03T16:46:37.265Z,9.17
2023-02-03T16:50:58.903Z,9.13
2023-02-03T16:55:02.483Z,9.10
2023-02-03T16:59:06.219Z,9.13
2023-02-03T17:03:12.195Z,9.04
2023-02-03T17:07:15.322Z,9.00
2023-02-03T17:11:19.823Z,8.93
2023-02-03T17:15:22.840Z,8.88
2023-02-03T17:19:27.322Z,8.86
2023-02-03T17:23:30.368Z,8.81
2023-02-03T17:27:33.491Z,8.78
2023-02-03T17:31:36.598Z,8.77
2023-02-03T17:35:42.463Z,8.82
2023-02-03T17:57:05.854Z,8.88
2023-02-03T18:01:15.753Z,8.88
2023-02-03T18:05:19.623Z,8.93
2023-02-03T18:09:24.294Z,8.91
2023-02-03T18:13:27.751Z,8.96
2023-02-03T18:17:30.857Z,8.95
2023-02-03T18:21:34.314Z,8.92
2023-02-03T18:25:38.883Z,8.93
2023-02-03T18:29:42.387Z,8.94
2023-02-03T18:33:46.608Z,8.93
2023-02-03T18:37:49.606Z,8.98
2023-02-03T18:41:53.992Z,8.98
2023-02-03T18:45:57.100Z,9.03
2023-02-03T18:50:00.191Z,9.02
2023-02-03T18:54:03.525Z,9.12
2023-02-03T18:58:07.993Z,9.15
2023-02-03T19:02:11.621Z,9.11
2023-02-03T19:06:14.650Z,9.12
2023-02-03T19:10:18.449Z,9.10
2023-02-03T19:14:23.566Z,9.23
2023-02-03T19:18:26.599Z,9.11
2023-02-03T19:22:29.841Z,9.07
2023-02-03T19:26:32.872Z,9.07
2023-02-03T19:30:37.819Z,9.12
2023-02-03T19:34:41.005Z,9.20
2023-02-03T19:38:44.121Z,9.24
2023-02-03T19:42:47.656Z,9.30
2023-02-03T19:46:52.398Z,9.30
2023-02-03T19:50:55.495Z,9.29
2023-02-03T19:54:58.605Z,9.37
2023-02-03T19:59:01.744Z,9.36
2023-02-03T20:03:06.279Z,9.35
2023-02-03T20:07:09.548Z,9.35
2023-02-03T20:11:12.841Z,9.39
2023-02-03T20:15:15.969Z,9.35
2023-02-03T20:19:20.935Z,9.36
2023-02-03T20:23:25.032Z,9.36
2023-02-03T20:27:28.424Z,9.31
2023-02-03T20:31:31.874Z,9.21
2023-02-03T20:35:38.362Z,9.26
2023-02-03T20:39:41.504Z,9.29
2023-02-03T20:43:44.692Z,9.17
2023-02-03T20:47:48.172Z,9.19
2023-02-03T20:51:52.595Z,9.16
2023-02-03T20:56:01.495Z,9.15
2023-02-03T21:00:14.817Z,9.12
2023-02-03T21:04:37.563Z,9.13
2023-02-03T21:08:43.169Z,9.08
2023-02-03T21:12:46.204Z,9.06
2023-02-03T21:16:49.373Z,9.12
2023-02-03T21:20:52.633Z,9.08
2023-02-03T21:24:59.454Z,9.05
2023-02-03T21:29:03.098Z,9.06
2023-02-03T21:33:28.755Z,9.08
2023-02-03T21:37:42.386Z,9.00
2023-02-03T21:41:46.797Z,9.02
2023-02-03T21:45:50.472Z,9.05
2023-02-03T21:49:53.546Z,8.95
2023-02-03T21:53:58.180Z,8.98
2023-02-03T21:58:18.079Z,8.84
2023-02-03T22:02:48.994Z,8.77
2023-02-03T22:06:53.964Z,8.71
2023-02-03T22:10:57.008Z,8.72
2023-02-03T22:15:01.380Z,8.61
2023-02-03T22:19:04.455Z,8.52
2023-02-03T22:23:07.477Z,8.45
2023-02-03T22:27:10.502Z,8.43
2023-02-03T22:31:15.600Z,8.37
2023-02-03T22:35:18.746Z,8.40
2023-02-03T22:39:21.790Z,8.38
2023-02-03T22:43:24.852Z,8.39
2023-02-03T22:47:29.261Z,8.41
2023-02-03T22:51:32.366Z,8.41
2023-02-03T22:55:36.327Z,8.37
2023-02-03T22:59:39.351Z,8.37
2023-02-03T23:03:43.745Z,8.41
2023-02-03T23:07:47.277Z,8.37
2023-02-03T23:11:50.331Z,8.36
2023-02-03T23:15:53.517Z,8.35
2023-02-03T23:19:58.004Z,8.38
2023-02-03T23:24:01.048Z,8.29
2023-02-03T23:28:04.293Z,8.22
2023-02-03T23:32:08.448Z,8.12
2023-02-03T23:36:12.844Z,7.97
2023-02-03T23:40:15.964Z,7.91
2023-02-03T23:44:19.022Z,7.89
2023-02-03T23:48:22.055Z,7.86
2023-02-03T23:52:26.374Z,7.84
2023-02-03T23:56:29.362Z,7.85
